Time;durP1;ratioP1;P1;durP2;ratioP2;P2;SDS_P1;SDS_P2;PMS_P1;PMS_P2;Temp;Humidity;BMP_temperature;BMP_pressure;BME280_temperature;BME280_humidity;BME280_pressure;Samples;Min_cycle;Max_cycle;Signal;HPM_P1;HPM_P2
2022/07/22 00:01:42;;;;;;;6.75;3.70;;;;;;;21.32;48.14;94880.13;5113098;28;20031;-75
2022/07/22 00:04:07;;;;;;;6.13;4.07;;;;;;;21.27;48.67;94888.63;5130637;27;20035;-75
2022/07/22 00:06:33;;;;;;;4.78;3.97;;;;;;;21.18;48.78;94884.47;5113452;28;20404;-75
2022/07/22 00:08:58;;;;;;;6.82;4.00;;;;;;;20.93;49.06;94876.13;5113288;28;20043;-74
2022/07/22 00:11:24;;;;;;;10.73;3.80;;;;;;;20.74;50.00;94882.84;5131974;27;20015;-74
2022/07/22 00:13:49;;;;;;;6.95;4.10;;;;;;;20.61;50.69;94888.81;5113380;28;20425;-75
2022/07/22 00:16:15;;;;;;;6.18;3.83;;;;;;;20.48;50.94;94886.84;5131678;27;20023;-74
2022/07/22 00:18:40;;;;;;;6.05;4.07;;;;;;;20.37;51.58;94889.94;5113174;28;20042;-75
2022/07/22 00:21:05;;;;;;;8.93;3.80;;;;;;;20.12;52.04;94888.63;5130404;28;20024;-74
2022/07/22 00:23:31;;;;;;;5.72;4.10;;;;;;;20.11;52.28;94892.25;5131512;27;20205;-74
2022/07/22 00:25:57;;;;;;;5.05;3.78;;;;;;;19.94;52.73;94891.63;5121794;28;20027;-74
2022/07/22 00:28:22;;;;;;;5.88;3.90;;;;;;;19.78;53.26;94887.34;5111006;28;20047;-74
2022/07/22 00:30:48;;;;;;;8.57;3.97;;;;;;;19.74;53.23;94894.00;5109735;28;20036;-74
2022/07/22 00:33:14;;;;;;;6.90;3.67;;;;;;;19.77;53.15;94904.19;5110913;28;20485;-74
2022/07/22 00:35:39;;;;;;;6.05;4.15;;;;;;;19.71;53.07;94904.91;5110900;28;20020;-74
2022/07/22 00:38:04;;;;;;;6.97;3.95;;;;;;;19.59;52.98;94896.63;5092959;28;20024;-74
2022/07/22 00:40:30;;;;;;;5.63;4.20;;;;;;;19.47;53.66;94906.75;5092574;28;20558;-74
2022/07/22 00:42:55;;;;;;;6.50;3.95;;;;;;;19.49;53.12;94904.75;5075848;28;20106;-74
2022/07/22 00:45:21;;;;;;;5.10;3.80;;;;;;;19.56;52.96;94905.69;5109832;28;20070;-74
2022/07/22 00:47:46;;;;;;;7.35;4.18;;;;;;;19.43;52.85;94901.03;5109568;28;20031;-75
2022/07/22 00:50:14;;;;;;;4.43;3.63;;;;;;;19.48;53.60;94903.13;5109614;28;20043;-74
2022/07/22 00:52:41;;;;;;;4.25;3.75;;;;;;;19.51;53.41;94899.31;5110807;28;20481;-74
2022/07/22 00:55:07;;;;;;;5.55;3.70;;;;;;;19.58;54.01;94894.94;5109580;28;20020;-74
2022/07/22 00:57:33;;;;;;;5.38;3.65;;;;;;;19.55;54.03;94898.75;5109492;28;20552;-74
2022/07/22 00:59:58;;;;;;;7.78;3.90;;;;;;;19.52;52.81;94893.03;5109313;28;20581;-74
2022/07/22 01:02:24;;;;;;;7.30;3.92;;;;;;;19.52;52.60;94898.31;5092544;28;20032;-74
2022/07/22 01:04:49;;;;;;;5.43;3.65;;;;;;;19.68;52.33;94892.09;5109547;28;20442;-74
2022/07/22 01:07:15;;;;;;;6.50;3.58;;;;;;;19.76;52.38;94889.38;5109443;28;20546;-74
2022/07/22 01:09:44;;;;;;;5.55;4.13;;;;;;;19.78;52.72;94884.72;5110593;28;20039;-74
2022/07/22 01:12:09;;;;;;;6.20;3.90;;;;;;;19.88;52.60;94882.63;5110599;28;20024;-74
2022/07/22 01:14:35;;;;;;;6.75;4.40;;;;;;;19.93;52.34;94882.09;5111647;28;20028;-74
2022/07/22 01:17:00;;;;;;;8.48;4.10;;;;;;;19.86;52.53;94887.28;5112998;28;20020;-74
2022/07/22 01:19:25;;;;;;;6.00;4.53;;;;;;;19.85;52.31;94883.00;5114353;28;20040;-74
2022/07/22 01:21:51;;;;;;;6.43;3.97;;;;;;;19.87;52.27;94888.91;5095827;28;20507;-74
2022/07/22 01:24:17;;;;;;;7.70;4.13;;;;;;;19.92;52.47;94891.84;5079030;28;20049;-74
2022/07/22 01:26:42;;;;;;;5.95;4.10;;;;;;;19.88;52.46;94898.47;5128850;27;20031;-74
2022/07/22 01:29:08;;;;;;;6.50;3.90;;;;;;;19.80;52.95;94888.81;5116084;27;20034;-74
2022/07/22 01:31:33;;;;;;;7.05;4.20;;;;;;;19.68;53.26;94887.66;5133710;27;20076;-74
2022/07/22 01:33:59;;;;;;;4.80;4.03;;;;;;;19.60;53.56;94885.88;5134504;27;20065;-74
2022/07/22 01:36:24;;;;;;;7.65;4.45;;;;;;;19.56;53.63;94883.81;5115972;27;20027;-74
2022/07/22 01:38:50;;;;;;;8.32;4.70;;;;;;;19.61;53.55;94881.41;5121245;27;20031;-74
2022/07/22 01:41:15;;;;;;;9.00;4.22;;;;;;;19.64;53.43;94876.63;5135035;27;20034;-75
2022/07/22 01:43:41;;;;;;;7.82;4.55;;;;;;;19.61;53.64;94877.00;5153328;27;20495;-74
2022/07/22 01:46:06;;;;;;;6.07;4.20;;;;;;;19.60;53.64;94885.88;5136319;27;20038;-74
2022/07/22 01:48:32;;;;;;;6.53;4.55;;;;;;;19.60;53.56;94879.78;5152966;27;20060;-74
2022/07/22 01:50:58;;;;;;;7.18;4.13;;;;;;;19.55;53.59;94885.59;5135350;27;20519;-74
2022/07/22 01:53:23;;;;;;;6.20;4.00;;;;;;;19.52;53.54;94878.06;5154295;27;20038;-74
2022/07/22 01:55:49;;;;;;;5.13;3.95;;;;;;;19.45;53.83;94886.88;5152335;27;20029;-74
2022/07/22 01:58:14;;;;;;;7.30;4.40;;;;;;;19.52;53.71;94890.41;5136166;27;20057;-74
2022/07/22 02:00:40;;;;;;;5.45;4.25;;;;;;;19.54;53.53;94897.13;5135829;27;20046;-74
2022/07/22 02:03:06;;;;;;;5.22;4.60;;;;;;;19.62;53.80;94896.25;5153206;27;20030;-74
2022/07/22 02:05:31;;;;;;;7.00;4.47;;;;;;;19.60;53.30;94890.34;5118715;27;20035;-74
2022/07/22 02:08:04;;;;;;;9.32;4.97;;;;;;;19.49;53.46;94899.50;5153388;27;20033;-74
2022/07/22 02:10:29;;;;;;;5.75;4.28;;;;;;;19.55;53.49;94903.22;5151760;27;20062;-74
2022/07/22 02:12:56;;;;;;;6.15;4.68;;;;;;;19.47;53.76;94890.94;5153166;27;20050;-75
2022/07/22 02:15:22;;;;;;;5.43;4.40;;;;;;;19.41;53.91;94892.47;5118920;27;20034;-74
2022/07/22 02:17:47;;;;;;;5.75;4.35;;;;;;;19.38;53.93;94886.75;5153164;27;20025;-74
2022/07/22 02:20:13;;;;;;;5.80;4.32;;;;;;;19.23;54.46;94896.47;5135843;27;20031;-74
2022/07/22 02:22:39;;;;;;;5.70;4.32;;;;;;;19.15;54.80;94908.69;5154272;27;20023;-74
2022/07/22 02:25:04;;;;;;;5.88;4.60;;;;;;;18.94;55.43;94911.16;5151934;27;20038;-74
2022/07/22 02:27:30;;;;;;;7.22;4.70;;;;;;;18.75;56.29;94910.63;5132235;27;20039;-74
2022/07/22 02:29:55;;;;;;;10.65;4.70;;;;;;;18.62;56.65;94923.50;5132210;27;20106;-74
2022/07/22 02:32:20;;;;;;;7.90;4.90;;;;;;;18.64;56.48;94915.47;5097919;27;20404;-74
2022/07/22 02:34:46;;;;;;;8.50;4.47;;;;;;;18.62;56.75;94915.63;5097924;27;20031;-74
2022/07/22 02:37:11;;;;;;;7.20;4.30;;;;;;;18.61;56.98;94916.63;5114846;27;20034;-74
2022/07/22 02:39:37;;;;;;;7.93;4.53;;;;;;;18.46;57.23;94913.91;5114821;27;20032;-74
2022/07/22 02:42:03;;;;;;;6.63;4.28;;;;;;;18.47;57.17;94915.56;5131804;27;20042;-74
2022/07/22 02:44:28;;;;;;;8.75;4.60;;;;;;;18.50;56.57;94919.66;5133006;27;20027;-74
2022/07/22 02:46:53;;;;;;;5.40;4.40;;;;;;;18.51;56.46;94908.13;5131787;27;20109;-74
2022/07/22 02:49:19;;;;;;;6.57;4.63;;;;;;;18.56;56.51;94912.88;5131734;27;20035;-74
2022/07/22 02:51:44;;;;;;;4.70;4.15;;;;;;;18.54;56.33;94902.53;5133210;27;20027;-74
2022/07/22 02:54:10;;;;;;;8.73;4.72;;;;;;;18.54;56.34;94908.59;5131659;27;20035;-74
2022/07/22 02:56:35;;;;;;;6.72;4.88;;;;;;;18.59;56.20;94904.63;5097481;27;20027;-74
2022/07/22 02:59:01;;;;;;;5.80;4.70;;;;;;;18.66;56.11;94908.19;5114277;27;20054;-74
2022/07/22 03:01:27;;;;;;;7.10;4.53;;;;;;;18.74;55.97;94906.34;5132622;27;20023;-74
2022/07/22 03:03:52;;;;;;;7.28;4.80;;;;;;;18.76;55.76;94911.47;5132734;27;20032;-74
2022/07/22 03:06:18;;;;;;;7.70;4.93;;;;;;;18.68;55.99;94914.09;5131436;27;20023;-75
2022/07/22 03:08:43;;;;;;;4.70;4.20;;;;;;;18.74;55.90;94913.44;5131077;27;20043;-74
2022/07/22 03:11:08;;;;;;;6.38;4.50;;;;;;;18.80;55.82;94914.53;5132756;27;20093;-74
2022/07/22 03:13:34;;;;;;;9.77;5.25;;;;;;;18.79;55.85;94913.72;5132510;27;20035;-74
2022/07/22 03:15:59;;;;;;;5.53;4.85;;;;;;;18.87;55.74;94905.78;5114157;27;20028;-74
2022/07/22 03:18:25;;;;;;;6.72;4.88;;;;;;;18.88;55.49;94904.78;5131221;27;20102;-74
2022/07/22 03:20:50;;;;;;;6.22;5.60;;;;;;;18.84;55.66;94900.06;5131196;27;20034;-74
2022/07/22 03:23:16;;;;;;;8.27;4.30;;;;;;;18.79;55.87;94913.72;5132324;27;20068;-74
2022/07/22 03:25:41;;;;;;;5.95;4.63;;;;;;;18.82;55.85;94912.56;5107700;28;20104;-74
2022/07/22 03:28:06;;;;;;;9.20;4.75;;;;;;;18.86;55.75;94908.56;5093379;28;20080;-75
2022/07/22 03:30:32;;;;;;;6.63;5.03;;;;;;;18.89;55.70;94908.25;5110444;28;20034;-74
2022/07/22 03:32:57;;;;;;;7.30;4.65;;;;;;;18.82;55.98;94907.31;5111722;28;20405;-74
2022/07/22 03:35:23;;;;;;;6.28;4.55;;;;;;;18.90;55.82;94904.63;5110173;28;20039;-74
2022/07/22 03:37:48;;;;;;;7.55;5.00;;;;;;;18.93;55.71;94906.88;5109937;28;20485;-74
2022/07/22 03:40:14;;;;;;;6.93;4.38;;;;;;;18.92;55.67;94908.72;5110381;28;20458;-74
2022/07/22 03:42:39;;;;;;;6.40;4.80;;;;;;;18.98;55.28;94901.94;5110240;28;20028;-74
2022/07/22 03:45:05;;;;;;;9.02;4.78;;;;;;;19.02;54.86;94915.53;5110452;28;20416;-74
2022/07/22 03:47:31;;;;;;;6.22;4.80;;;;;;;19.14;53.72;94922.03;5093107;28;20111;-74
2022/07/22 03:49:58;;;;;;;5.22;4.13;;;;;;;19.17;54.10;94906.69;5111739;28;20107;-74
2022/07/22 03:52:24;;;;;;;6.32;4.80;;;;;;;19.32;54.21;94927.81;5093482;28;20039;-74
2022/07/22 03:54:49;;;;;;;5.60;4.05;;;;;;;19.39;54.68;94928.72;5093120;28;20035;-74
2022/07/22 03:57:15;;;;;;;6.95;4.78;;;;;;;19.51;54.63;94923.84;5110154;28;20028;-74
2022/07/22 03:59:40;;;;;;;6.00;4.28;;;;;;;19.56;54.79;94924.13;5093100;28;20066;-75
2022/07/22 04:02:06;;;;;;;6.82;4.63;;;;;;;19.67;53.73;94927.34;5092985;28;20032;-74
2022/07/22 04:04:31;;;;;;;7.75;4.93;;;;;;;19.75;52.86;94927.25;5092196;28;20097;-74
2022/07/22 04:06:56;;;;;;;6.55;4.38;;;;;;;19.81;52.47;94932.63;5110039;28;20028;-74
2022/07/22 04:09:22;;;;;;;6.85;5.15;;;;;;;20.13;51.85;94935.91;5110138;28;20332;-75
2022/07/22 04:11:48;;;;;;;7.80;5.07;;;;;;;21.93;46.98;94914.72;5093020;28;20409;-74
2022/07/22 04:14:13;;;;;;;6.40;5.43;;;;;;;22.86;45.72;94924.91;5092967;28;20040;-74
2022/07/22 04:16:39;;;;;;;7.40;5.15;;;;;;;24.62;42.25;94929.69;5111142;28;20034;-74
2022/07/22 04:19:04;;;;;;;6.78;4.72;;;;;;;27.60;36.59;94925.09;5128022;28;20038;-75
2022/07/22 04:21:30;;;;;;;7.60;4.63;;;;;;;29.07;33.83;94928.53;5130404;28;20404;-75
2022/07/22 04:23:55;;;;;;;6.75;4.35;;;;;;;30.01;32.33;94927.97;5131658;27;20436;-75
2022/07/22 04:26:21;;;;;;;5.57;4.30;;;;;;;31.08;30.45;94931.22;5118414;28;20480;-75
2022/07/22 04:28:46;;;;;;;6.63;4.40;;;;;;;31.68;29.36;94926.69;5111320;28;20088;-75
2022/07/22 04:31:11;;;;;;;8.27;5.70;;;;;;;32.65;28.05;94938.09;5121715;28;20031;-75
2022/07/22 04:33:37;;;;;;;8.45;5.07;;;;;;;33.38;27.45;94935.38;5131412;27;20057;-75
2022/07/22 04:36:03;;;;;;;8.93;5.13;;;;;;;33.96;26.17;94941.34;5121316;28;20480;-74
2022/07/22 04:38:28;;;;;;;6.20;5.20;;;;;;;34.47;25.92;94940.47;5126751;28;20415;-75
2022/07/22 04:40:54;;;;;;;11.07;5.80;;;;;;;34.98;24.51;94942.19;5130064;27;20438;-75
2022/07/22 04:43:20;;;;;;;6.72;5.32;;;;;;;35.22;24.50;94939.66;5111525;28;20015;-75
2022/07/22 04:45:45;;;;;;;7.95;5.25;;;;;;;35.25;24.85;94945.31;5128683;28;20420;-75
2022/07/22 04:48:11;;;;;;;10.75;8.30;;;;;;;35.50;23.55;94949.75;5108686;28;20033;-75
2022/07/22 04:50:42;;;;;;;13.85;9.05;;;;;;;35.90;22.35;94949.72;5134172;27;20023;-75
2022/07/22 04:53:07;;;;;;;9.73;8.25;;;;;;;36.39;22.26;94952.28;5107284;27;20114;-75
2022/07/22 04:55:33;;;;;;;16.05;9.50;;;;;;;36.42;21.70;94953.59;5113139;28;20035;-75
2022/07/22 04:57:58;;;;;;;14.18;9.88;;;;;;;35.85;22.23;94947.88;5119925;27;20030;-75
2022/07/22 05:00:24;;;;;;;11.65;8.50;;;;;;;33.60;25.80;94948.63;5098781;27;20115;-75
2022/07/22 05:02:49;;;;;;;10.85;8.65;;;;;;;31.50;29.18;94950.19;5131600;27;20036;-76
2022/07/22 05:05:15;;;;;;;12.23;9.40;;;;;;;30.17;30.15;94947.72;5112853;27;20027;-75
2022/07/22 05:07:40;;;;;;;11.73;8.38;;;;;;;29.08;31.44;94959.56;5120647;27;20118;-75
2022/07/22 05:10:06;;;;;;;14.57;9.13;;;;;;;28.65;32.60;94958.19;5131884;27;20118;-76
2022/07/22 05:12:32;;;;;;;16.63;9.23;;;;;;;28.03;34.04;94964.03;5098811;27;20035;-75
2022/07/22 05:14:57;;;;;;;16.05;8.80;;;;;;;27.42;35.68;94960.69;5100909;27;20476;-75
2022/07/22 05:17:23;;;;;;;15.85;8.40;;;;;;;27.30;36.49;94957.97;5126722;27;20035;-75
2022/07/22 05:19:48;;;;;;;15.20;7.57;;;;;;;27.40;35.99;94946.75;5128797;27;20024;-75
2022/07/22 05:22:14;;;;;;;10.10;6.88;;;;;;;27.30;36.09;94959.81;5114190;27;20031;-75
2022/07/22 05:24:39;;;;;;;11.48;7.35;;;;;;;27.14;36.25;94963.94;5099598;28;20508;-75
2022/07/22 05:27:05;;;;;;;11.98;7.53;;;;;;;26.84;37.42;94959.38;5120755;27;20447;-76
2022/07/22 05:29:30;;;;;;;10.93;7.82;;;;;;;26.54;37.63;94959.34;5094555;28;20051;-77
2022/07/22 05:31:56;;;;;;;15.60;9.13;;;;;;;26.43;38.22;94971.50;5115217;27;20092;-77
2022/07/22 05:34:21;;;;;;;19.90;10.45;;;;;;;26.27;37.92;94956.13;5130853;27;20477;-78
2022/07/22 05:36:47;;;;;;;14.90;9.90;;;;;;;26.45;38.39;94965.97;5124742;27;20397;-77
2022/07/22 05:39:12;;;;;;;19.52;10.27;;;;;;;26.45;38.43;94968.63;5134316;27;20039;-77
2022/07/22 05:41:38;;;;;;;19.98;9.85;;;;;;;26.34;38.79;94972.84;5119052;27;20035;-82
2022/07/22 05:44:04;;;;;;;18.52;9.57;;;;;;;26.35;38.40;94969.13;5117267;27;20023;-78
2022/07/22 05:46:29;;;;;;;19.52;9.35;;;;;;;26.30;38.68;94969.81;5127490;27;20019;-78
2022/07/22 05:48:55;;;;;;;16.85;9.82;;;;;;;26.35;39.10;94969.13;5115801;27;20032;-77
2022/07/22 05:51:20;;;;;;;14.20;9.00;;;;;;;26.41;39.63;94959.44;5112692;28;20023;-77
2022/07/22 05:53:46;;;;;;;17.77;9.82;;;;;;;26.61;38.56;94965.41;5100054;27;20046;-77
2022/07/22 05:56:12;;;;;;;14.05;9.68;;;;;;;26.63;38.50;94954.53;5133374;27;20035;-75
2022/07/22 05:58:40;;;;;;;14.02;8.70;;;;;;;26.58;38.36;94957.88;5132311;27;20031;-77
2022/07/22 06:01:06;;;;;;;16.85;8.95;;;;;;;26.54;39.57;94953.22;5130818;27;20042;-75
2022/07/22 06:03:31;;;;;;;16.17;8.95;;;;;;;26.63;38.29;94963.31;5113536;28;20028;-75
2022/07/22 06:05:57;;;;;;;12.23;8.15;;;;;;;26.79;38.34;94964.56;5113618;28;20473;-75
2022/07/22 06:08:22;;;;;;;16.98;8.27;;;;;;;26.70;38.19;94963.25;5124730;27;20484;-75
2022/07/22 06:10:48;;;;;;;12.98;8.40;;;;;;;26.65;38.67;94960.44;5121055;27;20454;-73
2022/07/22 06:13:13;;;;;;;11.60;7.43;;;;;;;26.67;38.22;94961.03;5123806;27;20023;-75
2022/07/22 06:15:39;;;;;;;11.07;6.68;;;;;;;26.77;38.21;94963.16;5125536;27;20117;-76
2022/07/22 06:18:05;;;;;;;14.43;7.10;;;;;;;26.85;38.30;94968.19;5133574;27;20091;-74
2022/07/22 06:20:30;;;;;;;9.98;6.13;;;;;;;26.95;37.22;94960.47;5128433;27;20063;-76
2022/07/22 06:22:56;;;;;;;9.45;6.05;;;;;;;27.06;37.21;94959.72;5115125;27;20081;-76
2022/07/22 06:25:21;;;;;;;11.57;6.43;;;;;;;27.14;37.37;94964.72;5113066;28;20093;-76
2022/07/22 06:27:47;;;;;;;8.82;5.57;;;;;;;27.09;36.66;94967.25;5113574;27;20039;-74
2022/07/22 06:30:12;;;;;;;6.90;6.10;;;;;;;27.21;36.52;94963.84;5116297;27;20032;-73
2022/07/22 06:32:38;;;;;;;11.13;5.40;;;;;;;27.36;36.56;94966.94;5113426;27;20039;-74
2022/07/22 06:35:03;;;;;;;9.57;5.65;;;;;;;27.46;36.51;94971.69;5119142;27;20032;-74
2022/07/22 06:37:29;;;;;;;11.25;5.93;;;;;;;27.62;36.56;94960.38;5113952;27;20198;-74
2022/07/22 06:39:54;;;;;;;9.80;5.45;;;;;;;27.65;35.74;94964.44;5130799;27;20031;-74
2022/07/22 06:42:20;;;;;;;9.63;5.82;;;;;;;27.65;35.48;94956.44;5095561;27;20793;-74
2022/07/22 06:44:45;;;;;;;13.13;5.53;;;;;;;27.76;35.31;94966.31;5119638;27;20035;-73
2022/07/22 06:47:11;;;;;;;8.25;5.22;;;;;;;27.71;35.64;94964.31;5120569;27;20516;-74
2022/07/22 06:49:36;;;;;;;11.10;5.45;;;;;;;27.75;36.10;94967.31;5113923;27;20417;-74
2022/07/22 06:52:01;;;;;;;9.93;5.80;;;;;;;27.83;34.96;94967.00;5106260;28;20028;-76
2022/07/22 06:54:27;;;;;;;10.10;5.25;;;;;;;28.01;35.21;94966.94;5117455;27;20104;-75
2022/07/22 06:56:53;;;;;;;8.30;5.30;;;;;;;28.14;34.88;94965.06;5120344;27;20027;-74
2022/07/22 06:59:18;;;;;;;8.40;5.47;;;;;;;28.10;33.89;94956.69;5108310;27;20047;-74
2022/07/22 07:01:44;;;;;;;12.27;5.35;;;;;;;28.15;35.23;94958.69;5119928;27;20035;-74
2022/07/22 07:04:09;;;;;;;12.20;5.50;;;;;;;28.32;34.44;94961.47;5092634;28;20027;-74
2022/07/22 07:06:35;;;;;;;9.20;5.50;;;;;;;28.55;34.29;94968.66;5114977;27;20023;-75
2022/07/22 07:09:00;;;;;;;8.50;5.78;;;;;;;28.68;34.38;94963.84;5126860;27;20493;-74
2022/07/22 07:11:25;;;;;;;11.13;5.55;;;;;;;28.71;33.71;94963.38;5114489;27;20019;-74
2022/07/22 07:13:51;;;;;;;11.02;6.13;;;;;;;28.74;33.56;94968.25;5113392;27;20067;-74
2022/07/22 07:16:16;;;;;;;8.60;5.47;;;;;;;28.71;33.56;94968.72;5129103;27;20035;-74
2022/07/22 07:18:42;;;;;;;15.02;5.90;;;;;;;28.72;34.08;94966.84;5129032;27;20035;-73
2022/07/22 07:21:07;;;;;;;9.60;6.13;;;;;;;28.76;34.03;94965.34;5129526;27;20034;-74
2022/07/22 07:23:33;;;;;;;13.05;5.65;;;;;;;28.96;33.23;94980.97;5130216;27;20046;-74
2022/07/22 07:25:58;;;;;;;13.35;5.93;;;;;;;29.02;33.72;94958.63;5112103;27;20011;-73
2022/07/22 07:28:24;;;;;;;10.00;6.15;;;;;;;29.06;32.61;94975.03;5130416;27;20047;-74
2022/07/22 07:30:49;;;;;;;13.63;6.05;;;;;;;29.06;33.66;94959.81;5104727;28;20092;-74
2022/07/22 07:33:15;;;;;;;10.90;6.35;;;;;;;29.14;33.10;94970.13;5106606;27;20031;-73
2022/07/22 07:35:40;;;;;;;15.10;6.28;;;;;;;28.99;33.99;94963.66;5105056;28;20110;-74
2022/07/22 07:38:06;;;;;;;12.13;6.30;;;;;;;29.21;33.31;94961.97;5110343;28;20077;-74
2022/07/22 07:40:31;;;;;;;10.07;5.85;;;;;;;29.22;31.87;94960.91;5097891;27;20054;-74
2022/07/22 07:42:57;;;;;;;10.00;5.72;;;;;;;29.22;33.05;94968.91;5102260;27;20023;-74
2022/07/22 07:45:22;;;;;;;11.95;5.97;;;;;;;29.36;32.76;94970.28;5121659;27;20034;-73
2022/07/22 07:47:48;;;;;;;11.07;5.57;;;;;;;29.48;32.57;94969.41;5113898;27;20036;-74
2022/07/22 07:50:14;;;;;;;11.90;5.65;;;;;;;29.47;31.79;94973.09;5106655;28;20039;-74
2022/07/22 07:52:44;;;;;;;11.02;5.43;;;;;;;29.54;31.69;94966.56;5093126;28;20027;-74
2022/07/22 07:55:11;;;;;;;9.07;5.72;;;;;;;29.63;32.04;94964.31;5123933;27;20583;-74
2022/07/22 07:57:37;;;;;;;10.15;5.60;;;;;;;29.86;31.78;94968.69;5110135;28;20023;-74
2022/07/22 08:00:04;;;;;;;8.57;5.13;;;;;;;30.00;30.70;94959.28;5109887;28;20138;-74
2022/07/22 08:02:30;;;;;;;9.32;4.95;;;;;;;30.19;29.60;94969.72;5109998;28;20049;-74
2022/07/22 08:04:55;;;;;;;10.30;4.70;;;;;;;30.24;29.65;94951.09;5111327;28;20035;-74
2022/07/22 08:07:21;;;;;;;6.45;4.18;;;;;;;30.37;27.85;94953.44;5094390;28;20031;-74
2022/07/22 08:09:46;;;;;;;8.23;4.18;;;;;;;30.52;28.69;94963.53;5128647;28;20034;-74
2022/07/22 08:12:12;;;;;;;7.70;4.25;;;;;;;30.60;27.45;94963.09;5109525;28;20031;-73
2022/07/22 08:14:37;;;;;;;7.20;4.13;;;;;;;30.80;28.29;94959.06;5109779;28;20455;-73
2022/07/22 08:17:03;;;;;;;7.47;3.85;;;;;;;30.91;27.51;94952.78;5092966;28;20035;-74
2022/07/22 08:19:28;;;;;;;5.57;3.72;;;;;;;31.07;26.78;94964.50;5111354;28;20047;-74
2022/07/22 08:21:54;;;;;;;7.63;3.97;;;;;;;31.25;27.41;94963.31;5092886;28;20497;-73
2022/07/22 08:24:19;;;;;;;7.90;4.07;;;;;;;31.16;25.83;94955.72;5115153;28;20024;-73
2022/07/22 08:26:44;;;;;;;7.70;3.90;;;;;;;31.24;27.15;94967.06;5115589;28;20404;-74
2022/07/22 08:29:10;;;;;;;7.20;4.40;;;;;;;31.31;26.38;94965.00;5113864;28;20514;-74
2022/07/22 08:31:37;;;;;;;7.18;4.55;;;;;;;31.37;26.41;94964.00;5115150;28;20023;-74
2022/07/22 08:34:03;;;;;;;7.63;3.90;;;;;;;31.41;26.21;94964.31;5097130;28;20031;-74
2022/07/22 08:36:29;;;;;;;5.72;3.88;;;;;;;31.41;25.70;94967.81;5096785;28;20015;-74
2022/07/22 08:38:54;;;;;;;6.43;3.80;;;;;;;31.35;26.28;94958.06;5096802;28;20039;-74
2022/07/22 08:41:22;;;;;;;18.45;14.02;;;;;;;31.47;26.48;94963.31;5113679;28;20027;-74
2022/07/22 08:43:47;;;;;;;6.78;4.43;;;;;;;31.52;26.06;94966.03;5096816;28;20036;-74
2022/07/22 08:46:13;;;;;;;9.18;3.95;;;;;;;31.68;26.38;94973.16;5113709;28;20023;-74
2022/07/22 08:48:39;;;;;;;9.00;4.45;;;;;;;31.73;27.04;94969.69;5114880;28;20039;-74
2022/07/22 08:51:05;;;;;;;12.23;4.43;;;;;;;31.82;26.87;94952.88;5096777;28;20027;-74
2022/07/22 08:53:30;;;;;;;11.93;4.60;;;;;;;32.00;26.60;94965.09;5096466;28;20031;-74
2022/07/22 08:55:56;;;;;;;6.20;3.85;;;;;;;32.03;25.93;94955.72;5114783;28;20027;-74
2022/07/22 08:58:21;;;;;;;6.00;3.90;;;;;;;32.12;26.19;94961.44;5113445;28;20031;-74
2022/07/22 09:00:47;;;;;;;6.78;3.80;;;;;;;32.28;25.51;94968.53;5096239;28;20135;-74
2022/07/22 09:03:22;;;;;;;6.03;3.80;;;;;;;32.29;26.00;94978.22;5079514;28;20023;-74
2022/07/22 09:05:50;;;;;;;9.30;4.55;;;;;;;32.28;24.69;94969.31;5113540;28;20404;-73
2022/07/22 09:08:15;;;;;;;9.10;4.07;;;;;;;32.26;24.35;94970.66;5113262;28;20038;-74
2022/07/22 09:10:41;;;;;;;6.70;4.13;;;;;;;32.28;25.64;94968.53;5096155;28;20016;-74
2022/07/22 09:13:07;;;;;;;7.68;4.38;;;;;;;32.39;26.12;94972.88;5113111;28;20028;-74
2022/07/22 09:15:45;;;;;;;6.63;4.05;;;;;;;32.50;25.49;94973.78;5095998;28;20036;-73
2022/07/22 09:18:10;;;;;;;7.22;4.30;;;;;;;32.51;25.60;94967.31;5097322;28;20102;-73
2022/07/22 09:20:36;;;;;;;7.68;4.30;;;;;;;32.59;25.49;94971.41;5112875;28;20030;-73
2022/07/22 09:23:02;;;;;;;5.78;4.30;;;;;;;32.62;25.03;94968.19;5096102;28;20518;-74
2022/07/22 09:25:32;;;;;;;4.78;3.80;;;;;;;32.66;23.69;94974.69;5095790;28;20071;-74
2022/07/22 09:28:06;;;;;;;8.00;4.90;;;;;;;32.63;24.38;94973.31;5112919;28;20068;-73
2022/07/22 09:30:53;;;;;;;7.97;4.00;;;;;;;32.65;24.59;94973.03;5113988;27;20036;-73
2022/07/22 09:33:19;;;;;;;7.97;3.97;;;;;;;32.63;24.86;94965.25;5112741;28;20500;-73
2022/07/22 09:35:45;;;;;;;7.47;4.50;;;;;;;32.66;24.25;94962.03;5111805;28;20075;-73
2022/07/22 09:38:11;;;;;;;4.90;4.22;;;;;;;32.71;24.91;94962.06;5112665;28;20024;-74
2022/07/22 09:40:41;;;;;;;5.63;3.63;;;;;;;32.83;24.63;94961.84;5112712;28;20111;-74
2022/07/22 09:43:12;;;;;;;6.85;3.92;;;;;;;32.82;23.69;94956.72;5078780;28;20467;-73
2022/07/22 09:45:58;;;;;;;6.03;3.95;;;;;;;32.82;24.24;94960.22;5112481;28;20042;-73
2022/07/22 09:48:23;;;;;;;6.68;3.47;;;;;;;32.81;23.98;94955.91;5112007;28;20115;-73
2022/07/22 09:50:49;;;;;;;10.95;4.00;;;;;;;32.80;23.86;94958.88;5095339;28;20042;-73
2022/07/22 09:53:16;;;;;;;9.32;4.50;;;;;;;32.87;23.64;94951.34;5078423;28;20030;-73
2022/07/22 09:55:42;;;;;;;8.45;3.80;;;;;;;32.82;23.50;94960.22;5112227;28;20051;-73
2022/07/22 09:58:07;;;;;;;8.95;3.97;;;;;;;32.78;23.17;94961.81;5112243;28;20034;-73
2022/07/22 10:00:33;;;;;;;8.02;4.07;;;;;;;32.78;24.36;94948.38;5095066;28;20052;-73
2022/07/22 10:03:00;;;;;;;9.35;4.30;;;;;;;32.85;24.37;94954.31;5095287;28;20080;-74
2022/07/22 10:05:27;;;;;;;7.75;4.32;;;;;;;32.86;23.57;94942.50;5095145;28;20454;-73
2022/07/22 10:07:53;;;;;;;9.02;4.50;;;;;;;32.97;24.44;94955.97;5112117;28;20035;-74
2022/07/22 10:10:24;;;;;;;7.35;4.35;;;;;;;33.05;24.94;94950.13;5113612;28;20028;-74
2022/07/22 10:12:50;;;;;;;7.28;4.40;;;;;;;33.01;24.08;94947.13;5113300;28;20024;-74
2022/07/22 10:15:16;;;;;;;10.30;4.47;;;;;;;33.13;24.04;94945.03;5112105;28;20176;-73
2022/07/22 10:17:47;;;;;;;9.55;4.10;;;;;;;33.13;23.43;94944.22;5112006;28;20032;-74
2022/07/22 10:20:15;;;;;;;4.40;4.00;;;;;;;32.99;23.83;94943.06;5079276;28;20126;-74
2022/07/22 10:22:46;;;;;;;7.95;4.45;;;;;;;32.98;24.49;94936.06;5111787;28;20072;-73
2022/07/22 10:25:13;;;;;;;6.50;4.25;;;;;;;32.99;23.47;94932.28;5113411;28;20438;-74
2022/07/22 10:28:12;;;;;;;7.40;4.20;;;;;;;32.96;24.28;94939.03;5077882;28;20028;-73
2022/07/22 10:30:41;;;;;;;5.65;4.38;;;;;;;32.98;23.99;94944.13;5111524;28;20043;-73
2022/07/22 10:33:11;;;;;;;9.07;4.30;;;;;;;33.02;24.66;94937.19;5111577;28;20066;-74
2022/07/22 10:35:43;;;;;;;7.80;4.35;;;;;;;33.03;23.58;94934.22;5094450;28;20016;-74
2022/07/22 10:38:09;;;;;;;5.18;4.28;;;;;;;33.10;24.64;94939.38;5112855;28;20237;-74
2022/07/22 10:40:55;;;;;;;9.40;4.30;;;;;;;33.15;24.30;94937.50;5094423;28;20020;-74
2022/07/22 10:43:50;;;;;;;6.65;4.20;;;;;;;33.23;24.83;94933.47;5111444;28;20024;-74
2022/07/22 10:46:15;;;;;;;6.05;4.13;;;;;;;33.32;24.53;94915.72;5099079;27;20043;-74
2022/07/22 10:48:41;;;;;;;9.40;4.38;;;;;;;33.46;24.56;94926.78;5112520;28;20034;-74
2022/07/22 10:51:15;;;;;;;5.90;3.85;;;;;;;33.37;24.64;94939.94;5112482;28;20030;-74
2022/07/22 10:53:41;;;;;;;6.47;4.35;;;;;;;33.23;24.49;94938.03;5111160;28;20051;-74
2022/07/22 10:56:25;;;;;;;6.55;4.20;;;;;;;33.14;24.44;94932.38;5094065;28;20028;-74
2022/07/22 10:59:10;;;;;;;5.40;4.40;;;;;;;33.26;24.42;94935.63;5111078;28;20032;-74
2022/07/22 11:01:36;;;;;;;8.35;4.60;;;;;;;33.26;23.91;94932.94;5112241;28;20032;-74
2022/07/22 11:04:18;;;;;;;6.85;4.18;;;;;;;33.30;23.56;94936.72;5094168;28;20023;-74
2022/07/22 11:06:46;;;;;;;8.70;4.57;;;;;;;33.36;24.24;94932.94;5111036;28;20031;-74
2022/07/22 11:09:12;;;;;;;7.18;4.40;;;;;;;33.25;22.91;94927.81;5094119;28;20036;-74
2022/07/22 11:11:41;;;;;;;6.75;3.90;;;;;;;33.26;23.49;94926.75;5094009;28;20028;-74
2022/07/22 11:14:33;;;;;;;4.75;4.07;;;;;;;33.31;24.53;94932.94;5110586;28;20031;-74
2022/07/22 11:17:07;;;;;;;5.25;4.13;;;;;;;33.34;24.39;94916.25;5110797;28;20063;-74
2022/07/22 11:19:33;;;;;;;6.38;4.30;;;;;;;33.32;23.81;94937.25;5110814;28;20046;-74
2022/07/22 11:22:01;;;;;;;7.10;4.20;;;;;;;33.27;22.98;94926.50;5110666;28;20035;-74
2022/07/22 11:24:27;;;;;;;5.35;4.50;;;;;;;33.11;23.16;94925.63;5094018;28;20039;-74
2022/07/22 11:26:53;;;;;;;8.45;4.50;;;;;;;33.01;23.71;94922.91;5093602;28;20036;-74
2022/07/22 11:29:36;;;;;;;7.13;4.32;;;;;;;33.20;23.92;94923.22;5110538;28;20059;-74